Edith Kirk — 2DST9 — position and weather

sailwx.info

Track history (hours):
 
Tides and Currents Weather Stations Pressure Air Temp Water Temp Dewpoint Dewpoint Depression Visibility Wind Speed Wind Dir Waves Ship Positions

Edith Kirk

Last reported at 2014-Dec-17 10:32 UTC. Time now 2014-Dec-20 05:12 UTC.
Position N 39°04' W 009°57'.

Length 183 m; draft 7.5 m.

Type: Tanker. MMSI: 235081745.

Date/timePositionNaut miles runAvg speedWind from/ knotsBaromVisibWave heightAir tempDewpointWater temp
2014-Dec-17 10:32N 39°04' W 009°57'8 7.5
2014-Dec-17 09:27N 38°56' W 009°57'7 7.2
2014-Dec-17 08:29N 38°49' W 009°57'7 7.1
2014-Dec-17 07:33N 38°42' W 009°56'7 6.9
2014-Dec-17 06:33N 38°36' W 009°55'7 6.8
2014-Dec-17 05:34N 38°29' W 009°52'7 6.9
2014-Dec-17 04:32N 38°23' W 009°49'7 7.3
2014-Dec-17 03:33N 38°18' W 009°41'8 7.9
2014-Dec-17 02:34N 38°14' W 009°33'9 8.2
2014-Dec-17 01:29N 38°09' W 009°23'8 8.7
2014-Dec-17 00:33N 38°06' W 009°14'9 9.1
2014-Dec-16 23:33N 38°02' W 009°04'9 8.9
2014-Dec-16 22:33N 37°56' W 008°55'2 0.1
2014-Dec-15 20:04N 37°57' W 008°53'1 2.8
2014-Dec-15 19:33N 37°55' W 008°53'2 2.2
2014-Dec-15 18:32N 37°53' W 008°52'0 0.1
2014-Dec-15 17:31N 37°53' W 008°52'0 0.0
2014-Dec-15 16:31N 37°53' W 008°52'0 0.2
2014-Dec-15 15:33N 37°53' W 008°53'4 3.5
2014-Dec-15 14:33N 37°50' W 008°55'8 8.1
2014-Dec-15 13:32N 37°43' W 008°59'1111.5
2014-Dec-15 12:33N 37°33' W 009°06'198 9.3
2014-Dec-14 15:12N 35°60' W 005°28'6 9.8
2014-Dec-14 14:34N 36°01' W 005°20'21012.8
2014-Dec-13 22:06N 36°36' W 001°03'17912.3
2014-Dec-13 07:33N 37°06' E 002°38'53811.4
2014-Dec-11 08:29N 36°39' E 013°49'1212.5
2014-Dec-11 07:33N 36°36' E 014°03'1312.8
2014-Dec-11 06:33N 36°32' E 014°18'47711.9
2014-Dec-09 14:33N 37°23' E 024°12'1514.6
2014-Dec-09 13:33N 37°34' E 024°25'1313.2
2014-Dec-09 12:33N 37°45' E 024°33'301 7.7
2014-Dec-07 21:26N 41°26' E 028°59'16 8.4
2014-Dec-07 19:33N 41°26' E 029°20'4 4.3
2014-Dec-07 18:34N 41°29' E 029°24'1 1.1
2014-Dec-07 17:34N 41°30' E 029°23'1 1.2
2014-Dec-07 16:33N 41°31' E 029°22'10 2.9
2014-Dec-07 13:03N 41°23' E 029°29'2 5.0
2014-Dec-07 12:34N 41°22' E 029°32'2 1.9
2014-Dec-07 11:34N 41°23' E 029°30'2 1.7
2014-Dec-07 10:34N 41°24' E 029°28'  
Track history (hours):
 
Tides and Currents Weather Stations Pressure Air Temp Water Temp Dewpoint Dewpoint Depression Visibility Wind Speed Wind Dir Waves Ship Positions

Edith Kirk

Last reported at 2014-Dec-17 10:32 UTC. Time now 2014-Dec-20 05:12 UTC.
Position N 39°04' W 009°57'.

Length 183 m; draft 7.5 m.

Type: Tanker. MMSI: 235081745.

Date/timePositionNaut miles runAvg speedWind from/ knotsBaromVisibWave heightAir tempDewpointWater temp
2014-Dec-17 10:32N 39°04' W 009°57'8 7.5
2014-Dec-17 09:27N 38°56' W 009°57'7 7.2
2014-Dec-17 08:29N 38°49' W 009°57'7 7.1
2014-Dec-17 07:33N 38°42' W 009°56'7 6.9
2014-Dec-17 06:33N 38°36' W 009°55'7 6.8
2014-Dec-17 05:34N 38°29' W 009°52'7 6.9
2014-Dec-17 04:32N 38°23' W 009°49'7 7.3
2014-Dec-17 03:33N 38°18' W 009°41'8 7.9
2014-Dec-17 02:34N 38°14' W 009°33'9 8.2
2014-Dec-17 01:29N 38°09' W 009°23'8 8.7
2014-Dec-17 00:33N 38°06' W 009°14'9 9.1
2014-Dec-16 23:33N 38°02' W 009°04'9 8.9
2014-Dec-16 22:33N 37°56' W 008°55'2 0.1
2014-Dec-15 20:04N 37°57' W 008°53'1 2.8
2014-Dec-15 19:33N 37°55' W 008°53'2 2.2
2014-Dec-15 18:32N 37°53' W 008°52'0 0.1
2014-Dec-15 17:31N 37°53' W 008°52'0 0.0
2014-Dec-15 16:31N 37°53' W 008°52'0 0.2
2014-Dec-15 15:33N 37°53' W 008°53'4 3.5
2014-Dec-15 14:33N 37°50' W 008°55'8 8.1
2014-Dec-15 13:32N 37°43' W 008°59'1111.5
2014-Dec-15 12:33N 37°33' W 009°06'198 9.3
2014-Dec-14 15:12N 35°60' W 005°28'6 9.8
2014-Dec-14 14:34N 36°01' W 005°20'21012.8
2014-Dec-13 22:06N 36°36' W 001°03'17912.3
2014-Dec-13 07:33N 37°06' E 002°38'53811.4
2014-Dec-11 08:29N 36°39' E 013°49'1212.5
2014-Dec-11 07:33N 36°36' E 014°03'1312.8
2014-Dec-11 06:33N 36°32' E 014°18'47711.9
2014-Dec-09 14:33N 37°23' E 024°12'1514.6
2014-Dec-09 13:33N 37°34' E 024°25'1313.2
2014-Dec-09 12:33N 37°45' E 024°33'301 7.7
2014-Dec-07 21:26N 41°26' E 028°59'16 8.4
2014-Dec-07 19:33N 41°26' E 029°20'4 4.3
2014-Dec-07 18:34N 41°29' E 029°24'1 1.1
2014-Dec-07 17:34N 41°30' E 029°23'1 1.2
2014-Dec-07 16:33N 41°31' E 029°22'10 2.9
2014-Dec-07 13:03N 41°23' E 029°29'2 5.0
2014-Dec-07 12:34N 41°22' E 029°32'2 1.9
2014-Dec-07 11:34N 41°23' E 029°30'2 1.7
2014-Dec-07 10:34N 41°24' E 029°28'  

Dump ship's entire track history